Belle — WDC2472 — position and weather

sailwx.info

Track history (hours):
 
Tides and Currents Weather Stations Pressure Air Temp Water Temp Dewpoint Dewpoint Depression Visibility Wind Speed Wind Dir Waves Ship Positions

Belle

Owner: Florida Marine Transporters, Inc., Mandeville, LA. More information available from US FCC via Universal Licensing System and Coast Guard Vessel Documentation Center.

Last reported at 2017-Oct-13 06:23 UTC. Time now 2017-Oct-17 03:58 UTC.
Position N 29°23' W 094°52'.

Length 26 m; draft 3 m.

Type: Other ship. MMSI: 366993620.

Date/timePositionNaut miles runAvg speedWind from/ knotsBaromVisibWave heightAir tempDewpointWater temp
2017-Oct-13 06:23N 29°23' W 094°52'0 0.7
2017-Oct-13 06:00N 29°23' W 094°52'  
2017-Oct-10 06:53N 29°30' W 094°52'2 6.2
2017-Oct-10 06:30N 29°32' W 094°54'3 6.1
2017-Oct-10 06:00N 29°34' W 094°55'3 6.4
2017-Oct-10 05:30N 29°37' W 094°57'3 6.4
2017-Oct-10 05:00N 29°40' W 094°59'3 5.6
2017-Oct-10 04:30N 29°42' W 095°01'3 5.3
2017-Oct-10 03:59N 29°44' W 095°03'3 1.1
2017-Oct-10 01:28N 29°46' W 095°05'4 1.0
2017-Oct-09 21:31N 29°44' W 095°01'0 0.0
2017-Oct-09 21:28N 29°44' W 095°01'0 0.0
2017-Oct-09 18:36N 29°44' W 095°01'0 0.0
2017-Oct-09 15:28N 29°44' W 095°01'0 0.0
2017-Oct-09 14:48N 29°44' W 095°01'0 0.0
2017-Oct-09 14:30N 29°44' W 095°01'0 0.0
2017-Oct-09 13:59N 29°44' W 095°01'0 0.0
2017-Oct-09 13:30N 29°44' W 095°01'0 0.0
2017-Oct-09 13:00N 29°44' W 095°01'0 0.0
2017-Oct-09 12:23N 29°44' W 095°01'0 0.0
2017-Oct-09 11:27N 29°44' W 095°01'0 0.0
2017-Oct-09 08:05N 29°44' W 095°01'0 0.0
2017-Oct-09 07:42N 29°44' W 095°01'0 0.0
2017-Oct-09 06:34N 29°44' W 095°01'0 0.0
2017-Oct-09 06:25N 29°44' W 095°01'0 0.0
2017-Oct-09 05:51N 29°44' W 095°01'0 0.1
2017-Oct-09 03:47N 29°44' W 095°01'0 0.0
2017-Oct-09 02:19N 29°44' W 095°01'0 0.0
2017-Oct-08 19:33N 29°44' W 095°01'0 0.0
2017-Oct-08 19:29N 29°44' W 095°01'0 0.0
2017-Oct-08 16:57N 29°44' W 095°01'0 0.0
2017-Oct-08 16:24N 29°44' W 095°01'0 0.0
2017-Oct-08 14:34N 29°44' W 095°01'0 0.0
2017-Oct-08 14:27N 29°44' W 095°01'0 0.0
2017-Oct-08 13:58N 29°44' W 095°01'0 0.0
2017-Oct-08 13:22N 29°44' W 095°01'0 0.0
2017-Oct-08 12:30N 29°44' W 095°01'0 0.0
2017-Oct-08 09:29N 29°44' W 095°01'0 0.0
2017-Oct-08 08:49N 29°44' W 095°01'0 0.0
2017-Oct-08 08:12N 29°44' W 095°01'0 0.0
2017-Oct-08 07:58N 29°44' W 095°01'1 3.2
2017-Oct-08 07:30N 29°44' W 095°03'3 1.3
2017-Oct-08 04:58N 29°46' W 095°06'1 1.1
2017-Oct-08 04:30N 29°46' W 095°06'1 2.0
2017-Oct-08 04:00N 29°46' W 095°07'0 0.0
2017-Oct-08 03:30N 29°46' W 095°07'0 0.0
2017-Oct-08 03:00N 29°46' W 095°07'0 0.0
2017-Oct-08 02:30N 29°46' W 095°07'0 0.0
2017-Oct-08 02:00N 29°46' W 095°07'0 0.0
2017-Oct-08 01:30N 29°46' W 095°07'0 0.0
2017-Oct-08 01:00N 29°46' W 095°07'0 0.0
2017-Oct-08 00:30N 29°46' W 095°07'0 0.0
2017-Oct-07 23:57N 29°46' W 095°07'0 0.0
2017-Oct-07 23:28N 29°46' W 095°07'0 0.0
2017-Oct-07 23:00N 29°46' W 095°07'0 0.0
2017-Oct-07 22:30N 29°46' W 095°07'0 0.0
2017-Oct-07 21:56N 29°46' W 095°07'0 0.0
2017-Oct-07 21:29N 29°46' W 095°07'0 0.0
2017-Oct-07 20:59N 29°46' W 095°07'0 0.0
2017-Oct-07 20:29N 29°46' W 095°07'0 0.0
2017-Oct-07 19:59N 29°46' W 095°07'0 0.0
2017-Oct-07 19:14N 29°46' W 095°07'0 0.0
2017-Oct-07 19:00N 29°46' W 095°07'0 0.0
2017-Oct-07 18:30N 29°46' W 095°07'0 0.0
2017-Oct-07 17:58N 29°46' W 095°07'0 0.0
2017-Oct-07 17:28N 29°46' W 095°07'0 0.0
2017-Oct-07 16:57N 29°46' W 095°07'0 0.0
2017-Oct-07 16:29N 29°46' W 095°07'0 0.0
2017-Oct-07 15:56N 29°46' W 095°07'0 0.0
2017-Oct-07 15:27N 29°46' W 095°07'0 0.0
2017-Oct-07 14:57N 29°46' W 095°07'3 1.5
2017-Oct-07 13:13N 29°45' W 095°04'1 4.4
2017-Oct-07 13:00N 29°45' W 095°04'2 3.7
2017-Oct-07 12:23N 29°43' W 095°01'2 4.9
2017-Oct-07 11:59N 29°42' W 094°60'3 6.1
2017-Oct-07 11:30N 29°39' W 094°58'  
2017-Oct-04 20:21N 29°30' W 094°52'2 6.3
2017-Oct-04 20:00N 29°31' W 094°53'3 6.5
2017-Oct-04 19:30N 29°34' W 094°55'3 6.6
2017-Oct-04 19:00N 29°37' W 094°57'3 6.7
2017-Oct-04 18:30N 29°40' W 094°59'3 6.3
2017-Oct-04 17:58N 29°43' W 095°01'5 0.5
2017-Oct-04 07:23N 29°46' W 095°05'1 3.3
2017-Oct-04 06:57N 29°45' W 095°06'3 6.2
2017-Oct-04 06:30N 29°44' W 095°09'0 0.8
2017-Oct-04 06:00N 29°44' W 095°10'0 0.0
2017-Oct-04 05:30N 29°44' W 095°10'0 0.0
2017-Oct-04 05:00N 29°44' W 095°10'0 0.0
2017-Oct-04 04:30N 29°44' W 095°10'0 0.0
2017-Oct-04 04:01N 29°44' W 095°10'0 0.0
2017-Oct-04 03:30N 29°44' W 095°10'0 0.0
2017-Oct-04 03:00N 29°44' W 095°10'0 0.0
2017-Oct-04 02:30N 29°44' W 095°10'0 0.0
2017-Oct-04 01:57N 29°44' W 095°10'0 0.0
2017-Oct-04 01:30N 29°44' W 095°10'0 0.0
2017-Oct-04 01:00N 29°44' W 095°10'0 0.0
2017-Oct-04 00:23N 29°44' W 095°10'0 0.0
2017-Oct-03 20:11N 29°44' W 095°10'0 0.0
2017-Oct-03 19:59N 29°44' W 095°10'0 0.0
2017-Oct-03 18:31N 29°44' W 095°10'0 0.0
2017-Oct-03 18:28N 29°44' W 095°10'0 0.0
2017-Oct-03 17:43N 29°44' W 095°10'0 0.0
2017-Oct-03 11:25N 29°44' W 095°10'0 0.0
2017-Oct-03 11:00N 29°44' W 095°10'0 0.0
2017-Oct-03 10:30N 29°44' W 095°10'0 0.0
2017-Oct-03 10:00N 29°44' W 095°10'0 0.0
2017-Oct-03 09:31N 29°44' W 095°10'0 0.0
2017-Oct-03 09:00N 29°44' W 095°10'0 0.0
2017-Oct-03 08:29N 29°44' W 095°10'0 0.0
2017-Oct-03 08:00N 29°44' W 095°10'0 0.1
2017-Oct-03 07:30N 29°44' W 095°10'0 0.4
2017-Oct-03 07:00N 29°45' W 095°10'  
Track history (hours):
 
Tides and Currents Weather Stations Pressure Air Temp Water Temp Dewpoint Dewpoint Depression Visibility Wind Speed Wind Dir Waves Ship Positions

Belle

Owner: Florida Marine Transporters, Inc., Mandeville, LA. More information available from US FCC via Universal Licensing System and Coast Guard Vessel Documentation Center.

Last reported at 2017-Oct-13 06:23 UTC. Time now 2017-Oct-17 03:58 UTC.
Position N 29°23' W 094°52'.

Length 26 m; draft 3 m.

Type: Other ship. MMSI: 366993620.

Date/timePositionNaut miles runAvg speedWind from/ knotsBaromVisibWave heightAir tempDewpointWater temp
2017-Oct-13 06:23N 29°23' W 094°52'0 0.7
2017-Oct-13 06:00N 29°23' W 094°52'  
2017-Oct-10 06:53N 29°30' W 094°52'2 6.2
2017-Oct-10 06:30N 29°32' W 094°54'3 6.1
2017-Oct-10 06:00N 29°34' W 094°55'3 6.4
2017-Oct-10 05:30N 29°37' W 094°57'3 6.4
2017-Oct-10 05:00N 29°40' W 094°59'3 5.6
2017-Oct-10 04:30N 29°42' W 095°01'3 5.3
2017-Oct-10 03:59N 29°44' W 095°03'3 1.1
2017-Oct-10 01:28N 29°46' W 095°05'4 1.0
2017-Oct-09 21:31N 29°44' W 095°01'0 0.0
2017-Oct-09 21:28N 29°44' W 095°01'0 0.0
2017-Oct-09 18:36N 29°44' W 095°01'0 0.0
2017-Oct-09 15:28N 29°44' W 095°01'0 0.0
2017-Oct-09 14:48N 29°44' W 095°01'0 0.0
2017-Oct-09 14:30N 29°44' W 095°01'0 0.0
2017-Oct-09 13:59N 29°44' W 095°01'0 0.0
2017-Oct-09 13:30N 29°44' W 095°01'0 0.0
2017-Oct-09 13:00N 29°44' W 095°01'0 0.0
2017-Oct-09 12:23N 29°44' W 095°01'0 0.0
2017-Oct-09 11:27N 29°44' W 095°01'0 0.0
2017-Oct-09 08:05N 29°44' W 095°01'0 0.0
2017-Oct-09 07:42N 29°44' W 095°01'0 0.0
2017-Oct-09 06:34N 29°44' W 095°01'0 0.0
2017-Oct-09 06:25N 29°44' W 095°01'0 0.0
2017-Oct-09 05:51N 29°44' W 095°01'0 0.1
2017-Oct-09 03:47N 29°44' W 095°01'0 0.0
2017-Oct-09 02:19N 29°44' W 095°01'0 0.0
2017-Oct-08 19:33N 29°44' W 095°01'0 0.0
2017-Oct-08 19:29N 29°44' W 095°01'0 0.0
2017-Oct-08 16:57N 29°44' W 095°01'0 0.0
2017-Oct-08 16:24N 29°44' W 095°01'0 0.0
2017-Oct-08 14:34N 29°44' W 095°01'0 0.0
2017-Oct-08 14:27N 29°44' W 095°01'0 0.0
2017-Oct-08 13:58N 29°44' W 095°01'0 0.0
2017-Oct-08 13:22N 29°44' W 095°01'0 0.0
2017-Oct-08 12:30N 29°44' W 095°01'0 0.0
2017-Oct-08 09:29N 29°44' W 095°01'0 0.0
2017-Oct-08 08:49N 29°44' W 095°01'0 0.0
2017-Oct-08 08:12N 29°44' W 095°01'0 0.0
2017-Oct-08 07:58N 29°44' W 095°01'1 3.2
2017-Oct-08 07:30N 29°44' W 095°03'3 1.3
2017-Oct-08 04:58N 29°46' W 095°06'1 1.1
2017-Oct-08 04:30N 29°46' W 095°06'1 2.0
2017-Oct-08 04:00N 29°46' W 095°07'0 0.0
2017-Oct-08 03:30N 29°46' W 095°07'0 0.0
2017-Oct-08 03:00N 29°46' W 095°07'0 0.0
2017-Oct-08 02:30N 29°46' W 095°07'0 0.0
2017-Oct-08 02:00N 29°46' W 095°07'0 0.0
2017-Oct-08 01:30N 29°46' W 095°07'0 0.0
2017-Oct-08 01:00N 29°46' W 095°07'0 0.0
2017-Oct-08 00:30N 29°46' W 095°07'0 0.0
2017-Oct-07 23:57N 29°46' W 095°07'0 0.0
2017-Oct-07 23:28N 29°46' W 095°07'0 0.0
2017-Oct-07 23:00N 29°46' W 095°07'0 0.0
2017-Oct-07 22:30N 29°46' W 095°07'0 0.0
2017-Oct-07 21:56N 29°46' W 095°07'0 0.0
2017-Oct-07 21:29N 29°46' W 095°07'0 0.0
2017-Oct-07 20:59N 29°46' W 095°07'0 0.0
2017-Oct-07 20:29N 29°46' W 095°07'0 0.0
2017-Oct-07 19:59N 29°46' W 095°07'0 0.0
2017-Oct-07 19:14N 29°46' W 095°07'0 0.0
2017-Oct-07 19:00N 29°46' W 095°07'0 0.0
2017-Oct-07 18:30N 29°46' W 095°07'0 0.0
2017-Oct-07 17:58N 29°46' W 095°07'0 0.0
2017-Oct-07 17:28N 29°46' W 095°07'0 0.0
2017-Oct-07 16:57N 29°46' W 095°07'0 0.0
2017-Oct-07 16:29N 29°46' W 095°07'0 0.0
2017-Oct-07 15:56N 29°46' W 095°07'0 0.0
2017-Oct-07 15:27N 29°46' W 095°07'0 0.0
2017-Oct-07 14:57N 29°46' W 095°07'3 1.5
2017-Oct-07 13:13N 29°45' W 095°04'1 4.4
2017-Oct-07 13:00N 29°45' W 095°04'2 3.7
2017-Oct-07 12:23N 29°43' W 095°01'2 4.9
2017-Oct-07 11:59N 29°42' W 094°60'3 6.1
2017-Oct-07 11:30N 29°39' W 094°58'  
2017-Oct-04 20:21N 29°30' W 094°52'2 6.3
2017-Oct-04 20:00N 29°31' W 094°53'3 6.5
2017-Oct-04 19:30N 29°34' W 094°55'3 6.6
2017-Oct-04 19:00N 29°37' W 094°57'3 6.7
2017-Oct-04 18:30N 29°40' W 094°59'3 6.3
2017-Oct-04 17:58N 29°43' W 095°01'5 0.5
2017-Oct-04 07:23N 29°46' W 095°05'1 3.3
2017-Oct-04 06:57N 29°45' W 095°06'3 6.2
2017-Oct-04 06:30N 29°44' W 095°09'0 0.8
2017-Oct-04 06:00N 29°44' W 095°10'0 0.0
2017-Oct-04 05:30N 29°44' W 095°10'0 0.0
2017-Oct-04 05:00N 29°44' W 095°10'0 0.0
2017-Oct-04 04:30N 29°44' W 095°10'0 0.0
2017-Oct-04 04:01N 29°44' W 095°10'0 0.0
2017-Oct-04 03:30N 29°44' W 095°10'0 0.0
2017-Oct-04 03:00N 29°44' W 095°10'0 0.0
2017-Oct-04 02:30N 29°44' W 095°10'0 0.0
2017-Oct-04 01:57N 29°44' W 095°10'0 0.0
2017-Oct-04 01:30N 29°44' W 095°10'0 0.0
2017-Oct-04 01:00N 29°44' W 095°10'0 0.0
2017-Oct-04 00:23N 29°44' W 095°10'0 0.0
2017-Oct-03 20:11N 29°44' W 095°10'0 0.0
2017-Oct-03 19:59N 29°44' W 095°10'0 0.0
2017-Oct-03 18:31N 29°44' W 095°10'0 0.0
2017-Oct-03 18:28N 29°44' W 095°10'0 0.0
2017-Oct-03 17:43N 29°44' W 095°10'0 0.0
2017-Oct-03 11:25N 29°44' W 095°10'0 0.0
2017-Oct-03 11:00N 29°44' W 095°10'0 0.0
2017-Oct-03 10:30N 29°44' W 095°10'0 0.0
2017-Oct-03 10:00N 29°44' W 095°10'0 0.0
2017-Oct-03 09:31N 29°44' W 095°10'0 0.0
2017-Oct-03 09:00N 29°44' W 095°10'0 0.0
2017-Oct-03 08:29N 29°44' W 095°10'0 0.0
2017-Oct-03 08:00N 29°44' W 095°10'0 0.1
2017-Oct-03 07:30N 29°44' W 095°10'0 0.4
2017-Oct-03 07:00N 29°45' W 095°10'  

Dump ship's entire track history